Time;durP1;ratioP1;P1;durP2;ratioP2;P2;SDS_P1;SDS_P2;PMS_P1;PMS_P2;Temp;Humidity;BMP_temperature;BMP_pressure;BME280_temperature;BME280_humidity;BME280_pressure;Samples;Min_cycle;Max_cycle;Signal;HPM_P1;HPM_P2
2023/12/21 00:02:20;;;;;;;4.40;1.43;;;5.30;17.70;;;;;;5004438;28;20488;-66
2023/12/21 00:04:47;;;;;;;5.93;1.40;;;5.40;17.70;;;;;;5008424;28;20502;-66
2023/12/21 00:07:13;;;;;;;6.63;1.30;;;5.40;17.60;;;;;;5009159;28;20466;-67
2023/12/21 00:09:40;;;;;;;4.50;1.10;;;5.40;17.60;;;;;;5002553;28;20499;-66
2023/12/21 00:12:07;;;;;;;5.70;1.57;;;5.40;17.40;;;;;;5009829;28;20478;-66
2023/12/21 00:14:34;;;;;;;5.70;1.50;;;5.40;17.10;;;;;;5007481;28;20462;-67
2023/12/21 00:17:00;;;;;;;3.73;1.50;;;5.40;17.20;;;;;;5010799;28;20472;-68
2023/12/21 00:19:29;;;;;;;4.23;1.10;;;5.40;17.30;;;;;;5006847;28;20491;-68
2023/12/21 00:21:56;;;;;;;3.73;1.10;;;5.40;17.30;;;;;;5008727;28;20482;-66
2023/12/21 00:24:22;;;;;;;6.07;1.30;;;5.40;17.20;;;;;;5003392;28;20463;-66
2023/12/21 00:26:49;;;;;;;4.20;1.27;;;5.40;17.10;;;;;;5009473;28;20464;-66
2023/12/21 00:29:16;;;;;;;4.47;1.13;;;5.40;17.60;;;;;;5007643;28;21012;-67
2023/12/21 00:31:43;;;;;;;4.27;1.47;;;5.40;17.10;;;;;;5007541;28;20476;-66
2023/12/21 00:34:09;;;;;;;3.80;1.10;;;5.50;17.00;;;;;;5009122;28;20836;-66
2023/12/21 00:36:37;;;;;;;5.07;1.87;;;5.50;17.10;;;;;;5007323;28;20456;-67
2023/12/21 00:39:05;;;;;;;4.73;1.23;;;5.50;17.10;;;;;;5009419;28;20491;-66
2023/12/21 00:41:31;;;;;;;6.17;1.30;;;5.50;17.10;;;;;;5005470;28;20843;-66
2023/12/21 00:43:58;;;;;;;3.80;1.00;;;5.50;17.10;;;;;;5005492;28;20464;-66
2023/12/21 00:46:25;;;;;;;4.20;1.20;;;5.50;17.10;;;;;;5003423;28;20468;-67
2023/12/21 00:48:51;;;;;;;5.87;1.53;;;5.50;16.90;;;;;;5002485;28;20993;-68
2023/12/21 00:51:18;;;;;;;7.23;1.60;;;5.60;17.00;;;;;;5003732;28;20487;-68
2023/12/21 00:53:46;;;;;;;8.43;1.87;;;5.60;17.00;;;;;;5009666;28;20470;-67
2023/12/21 00:56:13;;;;;;;7.43;2.03;;;5.50;17.10;;;;;;5007263;28;21000;-66
2023/12/21 00:58:39;;;;;;;6.10;0.97;;;5.50;17.30;;;;;;5009183;28;20487;-68
2023/12/21 01:01:06;;;;;;;4.30;1.40;;;5.50;17.20;;;;;;5003185;28;20488;-67
2023/12/21 01:03:33;;;;;;;6.37;1.43;;;5.60;17.20;;;;;;5003296;28;21531;-66
2023/12/21 01:06:00;;;;;;;5.20;1.43;;;5.60;17.10;;;;;;4999762;28;20496;-66
2023/12/21 01:08:26;;;;;;;5.20;1.50;;;5.60;17.10;;;;;;5009037;28;20452;-66
2023/12/21 01:10:54;;;;;;;4.27;1.13;;;5.60;17.10;;;;;;5013817;28;20952;-68
2023/12/21 01:13:22;;;;;;;4.83;1.43;;;5.60;17.10;;;;;;5006344;28;20468;-66
2023/12/21 01:15:49;;;;;;;5.27;1.40;;;5.60;17.10;;;;;;5003878;28;20490;-66
2023/12/21 01:18:15;;;;;;;5.10;1.33;;;5.60;17.20;;;;;;5007631;28;20495;-66
2023/12/21 01:20:42;;;;;;;4.30;1.40;;;5.60;17.20;;;;;;5002552;28;20838;-66
2023/12/21 01:23:09;;;;;;;4.10;1.10;;;5.60;17.30;;;;;;5005515;28;20502;-66
2023/12/21 01:25:36;;;;;;;5.37;1.23;;;5.60;17.30;;;;;;5006935;28;20472;-66
2023/12/21 01:28:04;;;;;;;6.33;1.63;;;5.60;17.40;;;;;;5004711;28;20461;-66
2023/12/21 01:30:31;;;;;;;3.70;1.30;;;5.60;17.60;;;;;;5003143;28;20839;-66
2023/12/21 01:32:57;;;;;;;5.30;1.43;;;5.60;17.50;;;;;;5006559;28;20471;-66
2023/12/21 01:35:24;;;;;;;5.20;1.17;;;5.60;17.70;;;;;;5004716;28;20971;-68
2023/12/21 01:37:51;;;;;;;3.67;1.00;;;5.60;17.70;;;;;;5008373;28;20472;-66
2023/12/21 01:40:18;;;;;;;4.83;1.60;;;5.60;17.80;;;;;;5006179;28;20987;-66
2023/12/21 01:42:44;;;;;;;6.60;1.77;;;5.60;17.90;;;;;;5000264;28;20472;-66
2023/12/21 01:45:13;;;;;;;4.60;1.63;;;5.70;18.20;;;;;;5006840;28;20737;-66
2023/12/21 01:47:40;;;;;;;3.73;1.20;;;5.70;18.40;;;;;;5005565;28;20502;-66
2023/12/21 01:50:08;;;;;;;3.67;1.30;;;5.70;18.60;;;;;;5007997;28;20472;-66
2023/12/21 01:52:36;;;;;;;3.53;1.13;;;5.70;18.60;;;;;;5002139;28;20464;-66
2023/12/21 01:55:03;;;;;;;3.80;0.90;;;5.70;18.60;;;;;;5006095;28;20459;-66
2023/12/21 01:57:29;;;;;;;4.97;1.20;;;5.70;18.80;;;;;;5001031;28;20455;-68
2023/12/21 01:59:56;;;;;;;3.87;1.40;;;5.70;18.90;;;;;;5006355;28;20495;-66
2023/12/21 02:02:24;;;;;;;5.57;1.60;;;5.70;18.90;;;;;;5002523;28;20506;-66
2023/12/21 02:04:52;;;;;;;3.80;1.33;;;5.70;19.00;;;;;;5004933;28;20463;-66
2023/12/21 02:07:19;;;;;;;5.13;1.67;;;5.80;19.10;;;;;;5004537;28;20488;-66
2023/12/21 02:09:46;;;;;;;3.63;1.30;;;5.80;19.30;;;;;;5006202;28;20479;-66
2023/12/21 02:12:12;;;;;;;3.67;1.10;;;5.80;19.30;;;;;;5005933;28;20944;-66
2023/12/21 02:14:39;;;;;;;4.20;1.20;;;5.80;19.50;;;;;;5007672;28;20467;-67
2023/12/21 02:17:09;;;;;;;3.77;1.20;;;5.80;19.50;;;;;;5005463;28;20456;-66
2023/12/21 02:19:38;;;;;;;3.60;1.50;;;5.80;19.60;;;;;;5003914;28;20840;-66
2023/12/21 02:22:07;;;;;;;4.20;1.57;;;5.80;19.50;;;;;;5007849;28;21169;-66
2023/12/21 02:24:35;;;;;;;3.67;1.33;;;5.80;19.40;;;;;;5004196;28;20468;-66
2023/12/21 02:27:02;;;;;;;5.00;1.30;;;5.80;19.40;;;;;;5007456;28;20468;-66
2023/12/21 02:29:29;;;;;;;5.23;1.20;;;5.80;19.40;;;;;;5003746;28;20487;-66
2023/12/21 02:31:56;;;;;;;3.90;1.43;;;5.80;19.30;;;;;;5002235;28;20480;-66
2023/12/21 02:34:22;;;;;;;4.20;1.50;;;5.80;19.40;;;;;;5002632;28;20460;-66
2023/12/21 02:36:49;;;;;;;5.40;1.90;;;5.80;19.20;;;;;;5004752;28;20456;-66
2023/12/21 02:39:16;;;;;;;5.97;1.33;;;5.80;19.20;;;;;;5007268;28;20495;-66
2023/12/21 02:41:44;;;;;;;4.17;1.70;;;5.80;19.30;;;;;;5011993;28;20467;-66
2023/12/21 02:44:10;;;;;;;3.97;1.07;;;5.80;19.20;;;;;;5007217;28;20464;-66
2023/12/21 02:46:37;;;;;;;4.70;1.10;;;5.80;19.20;;;;;;5010278;28;20463;-66
2023/12/21 02:49:04;;;;;;;3.87;1.13;;;5.90;19.30;;;;;;5006402;28;20481;-67
2023/12/21 02:51:31;;;;;;;3.93;1.10;;;5.90;19.20;;;;;;5008325;28;20455;-67
2023/12/21 02:53:57;;;;;;;6.57;2.43;;;5.90;19.30;;;;;;5005756;28;20460;-67
2023/12/21 02:56:24;;;;;;;4.20;1.20;;;5.90;19.20;;;;;;5006413;28;20833;-67
2023/12/21 02:58:52;;;;;;;5.17;1.37;;;5.90;19.30;;;;;;5009052;28;20490;-66
2023/12/21 03:01:19;;;;;;;4.50;1.30;;;5.80;19.30;;;;;;5008726;28;20468;-66
2023/12/21 03:03:45;;;;;;;4.30;1.53;;;5.80;19.30;;;;;;5006160;28;20464;-66
2023/12/21 03:06:12;;;;;;;4.03;1.27;;;5.80;19.30;;;;;;5003155;28;20540;-66
2023/12/21 03:08:39;;;;;;;5.60;1.47;;;5.90;19.40;;;;;;5009272;28;20487;-67
2023/12/21 03:11:06;;;;;;;3.87;1.30;;;5.90;19.20;;;;;;5010082;28;20471;-66
2023/12/21 03:13:33;;;;;;;5.27;1.80;;;5.90;19.30;;;;;;5009886;28;20537;-66
2023/12/21 03:16:05;;;;;;;3.20;1.00;;;5.90;19.30;;;;;;5009162;28;20470;-66
2023/12/21 03:18:31;;;;;;;3.50;1.37;;;5.90;19.30;;;;;;5009144;28;20836;-66
2023/12/21 03:20:58;;;;;;;4.00;1.43;;;5.90;19.50;;;;;;5007005;28;20482;-66
2023/12/21 03:23:25;;;;;;;4.30;1.07;;;5.90;19.50;;;;;;5006818;28;20502;-66
2023/12/21 03:25:52;;;;;;;6.30;1.17;;;5.90;20.00;;;;;;5008408;28;20482;-66
2023/12/21 03:28:19;;;;;;;4.07;1.10;;;5.90;19.50;;;;;;5009170;28;20459;-66
2023/12/21 03:30:45;;;;;;;4.80;1.20;;;5.90;19.50;;;;;;5007822;28;21050;-66
2023/12/21 03:33:13;;;;;;;3.40;1.17;;;5.90;19.70;;;;;;5000765;28;20464;-67
2023/12/21 03:35:40;;;;;;;3.80;1.33;;;5.90;19.70;;;;;;5005132;28;20292;-67
2023/12/21 03:38:07;;;;;;;4.53;1.00;;;5.90;19.50;;;;;;5006443;28;20463;-66
2023/12/21 03:40:33;;;;;;;5.00;0.90;;;5.90;19.60;;;;;;5009276;28;20483;-67
2023/12/21 03:43:00;;;;;;;5.60;1.20;;;5.90;20.20;;;;;;5005749;28;20952;-67
2023/12/21 03:45:27;;;;;;;3.57;1.00;;;5.90;19.80;;;;;;5009959;28;20472;-67
2023/12/21 03:47:54;;;;;;;3.43;0.93;;;5.90;19.90;;;;;;5007089;28;20464;-66
2023/12/21 03:50:22;;;;;;;3.87;1.00;;;5.90;20.00;;;;;;5008045;28;20830;-67
2023/12/21 03:52:48;;;;;;;3.63;0.97;;;5.90;20.00;;;;;;5005962;28;20470;-67
2023/12/21 03:55:15;;;;;;;3.73;1.03;;;5.80;19.90;;;;;;5006830;28;20467;-66
2023/12/21 03:57:42;;;;;;;5.00;1.10;;;5.80;20.00;;;;;;5006673;28;20510;-66
2023/12/21 04:00:10;;;;;;;4.40;1.60;;;5.90;20.10;;;;;;5005830;28;20479;-66
2023/12/21 04:02:37;;;;;;;4.23;1.40;;;5.90;20.00;;;;;;5008099;28;20526;-66
2023/12/21 04:05:05;;;;;;;3.70;1.10;;;5.90;20.00;;;;;;5007372;28;20487;-66
2023/12/21 04:07:33;;;;;;;3.50;0.83;;;5.90;20.10;;;;;;5006808;28;20460;-66
2023/12/21 04:10:00;;;;;;;4.43;1.27;;;5.90;20.70;;;;;;5006279;28;20998;-66
2023/12/21 04:12:27;;;;;;;3.57;0.90;;;5.90;20.20;;;;;;5006630;28;20571;-66
2023/12/21 04:14:54;;;;;;;4.00;0.70;;;5.90;20.20;;;;;;5008061;28;20463;-66
2023/12/21 04:17:20;;;;;;;4.37;1.43;;;5.90;20.20;;;;;;5006777;28;20468;-66
2023/12/21 04:19:47;;;;;;;3.67;1.00;;;5.90;20.50;;;;;;5007768;28;20496;-66
2023/12/21 04:22:14;;;;;;;7.43;1.10;;;5.90;20.50;;;;;;5008094;28;20479;-66
2023/12/21 04:24:44;;;;;;;3.60;1.00;;;5.90;20.50;;;;;;5008393;28;20460;-66
2023/12/21 04:27:10;;;;;;;4.13;1.00;;;5.90;20.50;;;;;;5004441;28;20542;-69
2023/12/21 04:29:37;;;;;;;3.53;1.00;;;5.90;20.40;;;;;;5004438;28;20838;-70
2023/12/21 04:32:04;;;;;;;3.90;1.03;;;5.90;20.40;;;;;;5005294;28;21363;-69
2023/12/21 04:34:31;;;;;;;3.50;0.83;;;5.90;20.20;;;;;;5006180;28;20482;-70
2023/12/21 04:36:58;;;;;;;4.63;1.00;;;5.90;20.40;;;;;;5004892;28;20467;-70
2023/12/21 04:39:24;;;;;;;3.30;1.17;;;6.00;20.20;;;;;;5005092;28;20492;-70
2023/12/21 04:41:52;;;;;;;3.20;0.83;;;6.00;20.30;;;;;;5005624;28;21012;-70
2023/12/21 04:44:19;;;;;;;4.00;1.10;;;6.00;20.10;;;;;;5003380;28;20475;-70
2023/12/21 04:46:48;;;;;;;4.10;1.20;;;6.00;20.00;;;;;;5007879;28;20459;-69
2023/12/21 04:49:14;;;;;;;3.30;0.90;;;6.00;20.00;;;;;;5005457;28;20488;-70
2023/12/21 04:51:41;;;;;;;3.40;0.80;;;6.00;19.80;;;;;;5006750;28;20467;-70
2023/12/21 04:54:08;;;;;;;4.53;0.93;;;6.00;19.90;;;;;;5002825;28;20471;-70
2023/12/21 04:56:39;;;;;;;3.30;0.83;;;6.00;20.00;;;;;;5005021;28;20552;-70
2023/12/21 04:59:07;;;;;;;3.43;0.90;;;6.00;19.90;;;;;;5004491;28;20488;-69
2023/12/21 05:01:34;;;;;;;3.93;0.80;;;6.00;20.00;;;;;;5006029;28;20480;-70
2023/12/21 05:04:02;;;;;;;3.40;0.90;;;6.00;20.00;;;;;;5005436;28;20885;-69
2023/12/21 05:06:29;;;;;;;3.87;1.10;;;6.00;20.60;;;;;;5006092;28;20468;-69
2023/12/21 05:08:56;;;;;;;3.50;0.90;;;6.00;20.10;;;;;;5006434;28;20828;-70
2023/12/21 05:11:23;;;;;;;3.73;0.80;;;6.00;20.00;;;;;;5053364;22;20504;-67
2023/12/21 05:13:50;;;;;;;3.00;0.90;;;6.00;19.80;;;;;;5007258;28;20459;-67
2023/12/21 05:16:18;;;;;;;3.20;0.90;;;6.00;20.00;;;;;;5007953;28;20955;-67
2023/12/21 05:18:46;;;;;;;3.17;0.80;;;6.10;20.00;;;;;;5005439;28;20487;-67
2023/12/21 05:21:13;;;;;;;3.43;0.70;;;6.10;19.80;;;;;;5005750;28;20488;-67
2023/12/21 05:23:40;;;;;;;3.30;0.80;;;6.10;20.00;;;;;;5005288;28;20504;-67
2023/12/21 05:26:11;;;;;;;4.13;1.00;;;6.10;20.00;;;;;;5001586;28;20486;-66
2023/12/21 05:28:39;;;;;;;3.10;0.73;;;6.10;20.00;;;;;;5006437;28;20496;-66
2023/12/21 05:31:07;;;;;;;4.20;1.00;;;6.10;20.00;;;;;;5015189;28;20478;-66
2023/12/21 05:33:35;;;;;;;3.30;0.70;;;6.10;20.00;;;;;;5007822;28;20483;-66
2023/12/21 05:36:02;;;;;;;3.77;0.80;;;6.10;20.00;;;;;;5004282;28;20837;-66
2023/12/21 05:38:28;;;;;;;3.20;0.80;;;6.10;20.10;;;;;;5005731;28;20844;-66
2023/12/21 05:40:55;;;;;;;3.10;0.80;;;6.10;20.10;;;;;;5014140;28;20502;-66
2023/12/21 05:43:22;;;;;;;5.63;0.97;;;6.10;20.20;;;;;;5007720;28;20460;-66
2023/12/21 05:45:49;;;;;;;3.50;0.80;;;6.10;20.30;;;;;;5009268;28;20980;-66
2023/12/21 05:48:15;;;;;;;4.03;1.13;;;6.10;20.30;;;;;;5005705;28;20465;-66
2023/12/21 05:50:43;;;;;;;3.33;0.93;;;6.10;20.40;;;;;;5010279;28;20983;-66
2023/12/21 05:53:10;;;;;;;4.70;1.03;;;6.10;20.40;;;;;;5005148;28;20460;-66
2023/12/21 05:55:37;;;;;;;3.30;1.00;;;6.20;20.20;;;;;;5009299;28;20464;-66
2023/12/21 05:58:04;;;;;;;3.57;1.37;;;6.20;20.10;;;;;;5004859;28;20960;-66
2023/12/21 06:00:30;;;;;;;4.73;1.80;;;6.20;20.20;;;;;;5009538;28;20480;-66
2023/12/21 06:02:57;;;;;;;6.00;2.40;;;6.20;20.10;;;;;;5006700;28;20478;-66
2023/12/21 06:05:24;;;;;;;4.60;2.23;;;6.20;19.90;;;;;;5007485;28;20959;-66
2023/12/21 06:07:52;;;;;;;4.80;1.97;;;6.20;19.80;;;;;;5005391;28;20472;-66
2023/12/21 06:10:19;;;;;;;4.67;2.10;;;6.20;19.70;;;;;;5008892;28;20510;-66
2023/12/21 06:12:45;;;;;;;4.37;2.30;;;6.20;19.70;;;;;;5005067;28;20468;-66
2023/12/21 06:15:12;;;;;;;5.10;2.67;;;6.20;19.70;;;;;;5003575;28;21598;-67
2023/12/21 06:17:39;;;;;;;4.47;2.33;;;6.20;19.80;;;;;;5005982;28;20475;-66
2023/12/21 06:20:07;;;;;;;5.33;2.63;;;6.30;19.80;;;;;;5010402;28;20467;-66
2023/12/21 06:22:34;;;;;;;6.47;2.60;;;6.30;19.60;;;;;;5009679;28;20460;-66
2023/12/21 06:25:02;;;;;;;6.10;3.43;;;6.30;19.60;;;;;;5005522;28;20650;-66
2023/12/21 06:27:28;;;;;;;6.30;3.63;;;6.30;19.40;;;;;;5008399;28;21012;-66
2023/12/21 06:29:55;;;;;;;5.80;3.77;;;6.40;19.10;;;;;;5003218;28;20471;-66
2023/12/21 06:32:22;;;;;;;7.17;3.53;;;6.30;19.10;;;;;;5004661;28;21010;-66
2023/12/21 06:34:49;;;;;;;7.17;4.30;;;6.40;19.20;;;;;;5004713;28;20460;-66
2023/12/21 06:37:15;;;;;;;6.80;3.87;;;6.30;19.10;;;;;;5008997;28;20464;-66
2023/12/21 06:39:42;;;;;;;5.63;3.40;;;6.40;19.00;;;;;;5000424;28;20488;-66
2023/12/21 06:42:10;;;;;;;6.00;3.40;;;6.40;19.00;;;;;;5009949;28;20477;-67
2023/12/21 06:44:37;;;;;;;6.33;3.57;;;6.40;18.80;;;;;;5004985;28;20550;-66
2023/12/21 06:47:04;;;;;;;8.10;3.80;;;6.40;18.90;;;;;;5003550;28;21128;-67
2023/12/21 06:49:31;;;;;;;5.60;3.10;;;6.40;19.00;;;;;;5006821;28;20489;-66
2023/12/21 06:51:57;;;;;;;9.20;3.27;;;6.40;19.00;;;;;;5008158;28;20575;-66
2023/12/21 06:54:24;;;;;;;5.67;2.83;;;6.40;18.80;;;;;;5005718;28;20467;-66
2023/12/21 06:56:51;;;;;;;6.70;3.50;;;6.40;18.90;;;;;;5005870;28;20474;-66
2023/12/21 06:59:19;;;;;;;6.00;2.80;;;6.50;19.00;;;;;;5000044;28;20488;-67
2023/12/21 07:01:46;;;;;;;5.80;3.03;;;6.50;19.00;;;;;;5004048;28;20476;-66
2023/12/21 07:04:12;;;;;;;4.60;2.30;;;6.50;18.90;;;;;;5008232;28;20471;-66
2023/12/21 07:06:39;;;;;;;5.63;2.20;;;6.50;18.90;;;;;;5008932;28;20468;-66
2023/12/21 07:09:06;;;;;;;5.80;2.60;;;6.50;18.90;;;;;;5009051;28;20495;-66
2023/12/21 07:11:33;;;;;;;5.40;2.47;;;6.60;18.90;;;;;;5005870;28;21050;-66
2023/12/21 07:14:00;;;;;;;5.00;2.10;;;6.60;18.90;;;;;;5007253;28;20464;-66
2023/12/21 07:16:28;;;;;;;6.47;2.33;;;6.60;18.90;;;;;;5005892;28;20490;-67
2023/12/21 07:18:54;;;;;;;4.73;2.03;;;6.60;19.00;;;;;;5007477;28;20484;-66
2023/12/21 07:21:21;;;;;;;4.37;1.90;;;6.60;18.80;;;;;;5007402;28;20999;-66
2023/12/21 07:23:48;;;;;;;4.20;1.87;;;6.60;18.80;;;;;;5005452;28;20498;-66
2023/12/21 07:26:15;;;;;;;4.10;1.70;;;6.60;18.70;;;;;;5016074;28;20455;-66
2023/12/21 07:28:41;;;;;;;4.13;1.80;;;6.70;18.70;;;;;;5014660;28;20483;-66
2023/12/21 07:31:09;;;;;;;4.00;1.60;;;6.70;18.80;;;;;;5007539;28;21018;-67
2023/12/21 07:33:38;;;;;;;5.10;1.97;;;6.70;18.70;;;;;;5010221;28;21014;-66
2023/12/21 07:36:07;;;;;;;4.37;1.50;;;6.70;18.70;;;;;;5006003;28;20460;-66
2023/12/21 07:38:33;;;;;;;3.90;1.40;;;6.70;18.50;;;;;;5007017;28;20559;-66
2023/12/21 07:41:00;;;;;;;4.00;1.83;;;6.70;18.50;;;;;;5009093;28;20476;-66
2023/12/21 07:43:27;;;;;;;3.50;1.37;;;6.80;18.60;;;;;;5009680;28;20933;-66
2023/12/21 07:45:53;;;;;;;4.37;1.40;;;6.80;18.70;;;;;;5010872;28;20460;-66
2023/12/21 07:48:20;;;;;;;4.60;1.77;;;6.80;18.50;;;;;;5012481;28;20459;-66
2023/12/21 07:50:48;;;;;;;3.87;1.20;;;6.80;18.40;;;;;;5012004;28;20452;-66
2023/12/21 07:53:15;;;;;;;3.50;1.03;;;6.90;18.60;;;;;;5007775;28;20460;-67
2023/12/21 07:55:42;;;;;;;4.37;1.27;;;6.90;18.60;;;;;;5012743;28;20459;-66
2023/12/21 07:58:08;;;;;;;4.67;1.93;;;6.90;18.50;;;;;;5007845;28;20464;-67
2023/12/21 08:00:36;;;;;;;4.03;1.20;;;7.00;18.50;;;;;;5009672;28;20475;-67
2023/12/21 08:03:03;;;;;;;3.90;0.90;;;7.00;18.40;;;;;;5007857;28;20474;-66
2023/12/21 08:05:29;;;;;;;4.47;1.23;;;7.00;18.40;;;;;;5010717;28;20782;-67
2023/12/21 08:07:58;;;;;;;5.10;1.30;;;7.10;18.40;;;;;;5014374;28;20839;-67
2023/12/21 08:10:24;;;;;;;3.60;1.20;;;7.10;18.40;;;;;;5013235;28;20487;-67
2023/12/21 08:12:51;;;;;;;3.63;1.07;;;7.10;18.30;;;;;;5009405;28;20471;-67
2023/12/21 08:15:18;;;;;;;3.37;1.03;;;7.10;18.30;;;;;;5012929;28;20995;-66
2023/12/21 08:17:47;;;;;;;4.57;1.00;;;7.10;18.30;;;;;;5014380;28;20462;-67
2023/12/21 08:20:12;;;;;;;3.50;1.10;;;7.20;18.30;;;;;;5013312;28;20484;-67
2023/12/21 08:22:39;;;;;;;3.43;0.90;;;7.20;18.20;;;;;;5011198;28;20476;-67
2023/12/21 08:25:08;;;;;;;4.60;0.90;;;7.30;18.30;;;;;;5012266;28;20204;-67
2023/12/21 08:27:35;;;;;;;3.20;0.80;;;7.30;18.30;;;;;;5009291;28;20459;-67
2023/12/21 08:30:03;;;;;;;3.20;0.83;;;7.30;18.30;;;;;;5006924;28;20483;-67
2023/12/21 08:32:29;;;;;;;3.20;0.70;;;7.30;18.30;;;;;;5008004;28;20482;-67
2023/12/21 08:34:56;;;;;;;4.57;0.70;;;7.30;18.10;;;;;;5006415;28;20483;-72
2023/12/21 08:37:23;;;;;;;3.27;0.87;;;7.30;18.20;;;;;;5008010;28;20470;-72
2023/12/21 08:39:50;;;;;;;3.00;0.70;;;7.40;18.20;;;;;;5009273;28;21221;-72
2023/12/21 08:42:18;;;;;;;3.20;0.70;;;7.40;18.40;;;;;;5009702;28;21421;-72
2023/12/21 08:44:44;;;;;;;3.10;0.73;;;7.40;18.30;;;;;;5010282;28;20474;-72
2023/12/21 08:47:11;;;;;;;3.33;0.97;;;7.50;18.40;;;;;;5008477;28;21180;-72
2023/12/21 08:49:38;;;;;;;3.17;1.07;;;7.50;18.60;;;;;;5004573;28;20503;-70
2023/12/21 08:52:05;;;;;;;3.43;0.70;;;7.50;18.60;;;;;;5006903;28;20578;-72
2023/12/21 08:54:32;;;;;;;3.00;0.70;;;7.50;19.30;;;;;;5008053;28;20452;-72
2023/12/21 08:56:59;;;;;;;2.90;0.50;;;7.60;18.80;;;;;;5003060;28;20456;-72
2023/12/21 08:59:27;;;;;;;3.20;0.60;;;7.50;18.70;;;;;;5000237;28;20921;-72
2023/12/21 09:01:54;;;;;;;3.20;0.70;;;7.60;18.70;;;;;;5007251;28;20475;-72
2023/12/21 09:04:21;;;;;;;2.90;0.40;;;7.60;18.70;;;;;;5010099;28;20513;-72
2023/12/21 09:06:48;;;;;;;3.20;0.67;;;7.60;18.70;;;;;;5013593;28;20516;-72
2023/12/21 09:09:15;;;;;;;2.90;0.47;;;7.70;18.80;;;;;;5007597;28;20483;-72
2023/12/21 09:11:42;;;;;;;2.90;0.50;;;7.70;18.90;;;;;;5006602;28;20585;-72
2023/12/21 09:14:09;;;;;;;3.00;0.53;;;7.70;18.90;;;;;;5009594;28;20452;-72
2023/12/21 09:16:37;;;;;;;3.17;0.60;;;7.70;19.00;;;;;;5012212;28;20826;-72
2023/12/21 09:19:03;;;;;;;3.00;0.50;;;7.70;19.00;;;;;;5009897;28;21288;-72
2023/12/21 09:21:30;;;;;;;3.47;0.53;;;7.80;19.10;;;;;;5010154;28;20581;-72
2023/12/21 09:23:59;;;;;;;2.83;0.50;;;7.80;19.20;;;;;;5012085;28;20472;-72
2023/12/21 09:26:25;;;;;;;3.63;0.50;;;7.80;19.30;;;;;;5010100;28;20509;-72
2023/12/21 09:28:52;;;;;;;2.97;0.60;;;7.80;19.40;;;;;;5009246;28;20941;-72
2023/12/21 09:31:19;;;;;;;3.23;0.60;;;7.80;19.50;;;;;;5004925;28;20467;-72
2023/12/21 09:33:47;;;;;;;3.20;0.50;;;7.80;19.60;;;;;;5009486;28;20460;-72
2023/12/21 09:36:16;;;;;;;2.90;0.80;;;7.90;19.60;;;;;;5006930;28;20994;-72
2023/12/21 09:38:42;;;;;;;2.80;0.40;;;7.90;19.60;;;;;;5010981;28;21239;-72
2023/12/21 09:41:09;;;;;;;3.87;0.60;;;7.90;19.80;;;;;;5010108;28;20484;-72
2023/12/21 09:43:40;;;;;;;3.00;0.50;;;7.90;19.70;;;;;;5005353;28;20482;-72
2023/12/21 09:46:09;;;;;;;2.80;0.40;;;7.90;20.00;;;;;;5009004;28;20451;-72
2023/12/21 09:48:38;;;;;;;5.17;0.60;;;7.90;19.70;;;;;;5010458;28;20460;-72
2023/12/21 09:51:08;;;;;;;3.00;0.57;;;7.90;19.60;;;;;;5009600;28;20470;-72
2023/12/21 09:53:37;;;;;;;2.90;0.60;;;7.90;19.60;;;;;;5008719;28;20458;-72
2023/12/21 09:56:06;;;;;;;2.83;0.40;;;7.90;19.60;;;;;;5007691;28;20455;-72
2023/12/21 09:58:34;;;;;;;2.90;0.40;;;8.00;19.40;;;;;;5007835;28;20490;-72
2023/12/21 10:01:01;;;;;;;3.50;0.50;;;8.00;19.40;;;;;;5004997;28;20476;-72
2023/12/21 10:03:27;;;;;;;3.67;0.50;;;8.00;19.40;;;;;;5008996;28;20622;-72
2023/12/21 10:05:54;;;;;;;3.30;0.50;;;8.00;19.50;;;;;;5005550;28;20976;-73
2023/12/21 10:08:22;;;;;;;2.90;0.50;;;8.00;19.50;;;;;;5012839;28;20469;-72
2023/12/21 10:10:49;;;;;;;2.83;0.50;;;8.00;19.40;;;;;;5006534;28;21004;-72
2023/12/21 10:13:16;;;;;;;3.10;0.50;;;8.10;19.40;;;;;;5012168;28;20455;-72
2023/12/21 10:15:46;;;;;;;2.80;0.40;;;8.00;19.40;;;;;;5008039;28;20542;-72
2023/12/21 10:18:13;;;;;;;3.10;0.70;;;8.00;19.30;;;;;;5014545;28;20879;-72
2023/12/21 10:20:40;;;;;;;2.80;0.40;;;8.00;19.40;;;;;;5009155;28;20479;-72
2023/12/21 10:23:07;;;;;;;5.67;0.70;;;8.10;19.20;;;;;;5011188;28;20988;-72
2023/12/21 10:25:36;;;;;;;3.13;0.73;;;8.10;19.30;;;;;;5012701;28;20466;-72
2023/12/21 10:28:04;;;;;;;3.00;0.40;;;8.10;19.20;;;;;;5011974;28;20849;-72
2023/12/21 10:30:31;;;;;;;2.80;0.40;;;8.10;19.20;;;;;;5007955;28;20488;-72
2023/12/21 10:32:57;;;;;;;2.90;0.50;;;8.10;19.30;;;;;;5009763;28;20547;-72
2023/12/21 10:35:24;;;;;;;3.30;1.00;;;8.10;19.40;;;;;;5011155;28;20454;-72
2023/12/21 10:37:52;;;;;;;4.37;2.10;;;8.20;19.40;;;;;;5005802;28;20494;-72
2023/12/21 10:40:18;;;;;;;2.93;0.50;;;8.10;19.30;;;;;;5001915;28;20965;-72
2023/12/21 10:42:48;;;;;;;3.37;1.37;;;8.10;19.30;;;;;;5008047;28;20542;-72
2023/12/21 10:45:16;;;;;;;3.00;0.70;;;8.20;19.40;;;;;;5005166;28;20964;-72
2023/12/21 10:47:49;;;;;;;3.10;0.80;;;8.10;19.40;;;;;;5008376;28;21066;-72
2023/12/21 10:50:17;;;;;;;3.00;0.50;;;8.10;19.40;;;;;;5006658;28;20587;-72
2023/12/21 10:52:46;;;;;;;3.00;0.60;;;8.20;19.30;;;;;;5009571;28;20460;-72
2023/12/21 10:55:15;;;;;;;2.80;0.50;;;8.20;19.30;;;;;;5007464;28;20543;-72
2023/12/21 10:57:42;;;;;;;3.10;0.60;;;8.20;19.40;;;;;;5006338;28;20476;-72
2023/12/21 11:00:15;;;;;;;3.20;0.63;;;8.20;19.40;;;;;;5005258;28;20553;-72
2023/12/21 11:02:44;;;;;;;2.90;0.50;;;8.20;19.30;;;;;;5008473;28;20479;-72
2023/12/21 11:05:11;;;;;;;2.90;0.50;;;8.30;19.40;;;;;;5016764;28;20983;-72
2023/12/21 11:07:39;;;;;;;3.57;0.63;;;8.20;19.40;;;;;;5009424;28;20875;-72
2023/12/21 11:10:08;;;;;;;4.17;0.80;;;8.20;19.50;;;;;;5010090;28;20484;-72
2023/12/21 11:12:35;;;;;;;3.30;0.90;;;8.30;19.40;;;;;;5014205;28;20471;-72
2023/12/21 11:15:02;;;;;;;3.10;0.60;;;8.30;19.60;;;;;;5010472;28;20558;-71
2023/12/21 11:17:33;;;;;;;2.90;0.50;;;8.30;19.50;;;;;;5010166;28;20951;-72
2023/12/21 11:20:02;;;;;;;2.90;0.50;;;8.30;19.40;;;;;;4999535;28;20502;-75
2023/12/21 11:22:29;;;;;;;3.30;0.40;;;8.30;19.50;;;;;;5005744;28;20843;-71
2023/12/21 11:25:02;;;;;;;3.00;0.60;;;8.30;19.50;;;;;;5022888;22;20479;-67
2023/12/21 11:27:31;;;;;;;2.93;0.50;;;8.30;19.40;;;;;;5025290;28;20509;-67
2023/12/21 11:30:10;;;;;;;2.80;0.40;;;8.30;19.40;;;;;;5029248;28;20478;-66
2023/12/21 11:32:39;;;;;;;2.70;0.40;;;8.30;19.20;;;;;;5027918;28;20467;-67
2023/12/21 11:35:20;;;;;;;2.90;0.40;;;8.30;19.10;;;;;;5027036;28;20458;-67
2023/12/21 11:37:50;;;;;;;3.10;0.70;;;8.30;19.10;;;;;;5024703;28;20827;-67
2023/12/21 11:40:18;;;;;;;2.90;0.50;;;8.30;19.10;;;;;;5022077;28;20537;-68
2023/12/21 11:42:47;;;;;;;3.00;0.50;;;8.30;19.20;;;;;;5030317;28;20483;-67
2023/12/21 11:45:22;;;;;;;3.00;0.60;;;8.30;19.10;;;;;;5027791;28;20486;-68
2023/12/21 11:47:50;;;;;;;2.90;0.53;;;8.30;19.20;;;;;;5027339;28;20473;-67
2023/12/21 11:50:20;;;;;;;2.80;0.53;;;8.30;19.00;;;;;;5028883;28;20514;-67
2023/12/21 11:52:47;;;;;;;3.57;0.80;;;8.30;19.10;;;;;;5026421;28;20463;-67
2023/12/21 11:55:24;;;;;;;2.77;0.40;;;8.30;19.10;;;;;;5024539;28;21122;-66
2023/12/21 11:58:06;;;;;;;2.80;0.50;;;8.30;19.10;;;;;;5021651;28;20540;-66
2023/12/21 12:00:33;;;;;;;3.00;0.50;;;8.30;19.10;;;;;;5024835;28;20489;-65
2023/12/21 12:03:02;;;;;;;2.77;0.43;;;8.40;19.10;;;;;;5028905;28;20537;-67
2023/12/21 12:05:30;;;;;;;2.73;0.47;;;8.40;19.10;;;;;;5023949;28;20466;-66
2023/12/21 12:07:56;;;;;;;2.80;0.47;;;8.40;19.20;;;;;;5026607;28;20470;-66
2023/12/21 12:10:23;;;;;;;3.00;0.60;;;8.40;19.10;;;;;;5019518;28;20487;-68
2023/12/21 12:12:52;;;;;;;3.10;0.63;;;8.40;19.00;;;;;;5021425;28;20462;-68
2023/12/21 12:15:19;;;;;;;3.10;0.60;;;8.40;19.30;;;;;;5026520;28;20548;-68
2023/12/21 12:17:46;;;;;;;4.13;0.80;;;8.40;19.30;;;;;;5021358;28;20498;-67
2023/12/21 12:20:14;;;;;;;2.90;0.50;;;8.30;19.40;;;;;;5025335;28;20496;-67
2023/12/21 12:22:41;;;;;;;3.67;0.60;;;8.40;19.50;;;;;;5018316;28;20502;-67
2023/12/21 12:25:08;;;;;;;3.00;0.50;;;8.40;19.50;;;;;;5023205;28;20859;-67
2023/12/21 12:27:35;;;;;;;2.90;0.40;;;8.40;19.50;;;;;;5019214;28;20477;-67
2023/12/21 12:30:03;;;;;;;3.30;0.60;;;8.30;19.60;;;;;;5015828;28;20486;-67
2023/12/21 12:32:31;;;;;;;3.53;0.70;;;8.30;19.70;;;;;;5025416;28;20482;-67
2023/12/21 12:34:58;;;;;;;3.87;0.60;;;8.30;19.80;;;;;;5027892;28;20451;-67
2023/12/21 12:37:26;;;;;;;2.90;0.50;;;8.30;19.80;;;;;;5025866;28;20466;-67
2023/12/21 12:39:52;;;;;;;2.80;0.50;;;8.30;20.00;;;;;;5026676;28;20510;-67
2023/12/21 12:42:20;;;;;;;2.90;0.50;;;8.30;20.20;;;;;;5025972;28;20672;-67
2023/12/21 12:44:50;;;;;;;2.93;0.57;;;8.20;20.30;;;;;;5029008;28;20463;-67
2023/12/21 12:47:17;;;;;;;3.40;0.70;;;8.30;20.80;;;;;;5031557;28;20486;-67
2023/12/21 12:49:44;;;;;;;3.97;0.80;;;8.30;21.10;;;;;;5027048;28;20560;-68
2023/12/21 12:52:15;;;;;;;2.90;0.50;;;8.20;21.40;;;;;;5027395;28;20466;-67
2023/12/21 12:54:45;;;;;;;3.10;0.60;;;8.20;21.80;;;;;;5029088;28;20477;-66
2023/12/21 12:57:12;;;;;;;3.77;0.60;;;8.20;22.20;;;;;;5029058;28;20481;-66
2023/12/21 12:59:38;;;;;;;2.90;0.60;;;8.20;22.30;;;;;;5023446;28;20493;-66